Pagina principală
METAR-TAF:

METAR-TAF

Aeroporturi :

Ontario Municipal Airport

Ontario, Oregon, Statele Unite ale Americii

Latitudine: 44-01-10N, longitudine: 117-00-35W, elevație: 667 m

Observații meteo curente

Raportul a fost făcut în urmă cu 35 de minute, la 07:53 UTC
Vânt 4 kt de la Vest/Nord-vest
Temperatură 18°C
Umiditate 45%
Presiune 1016 hPa
Vizibilitate: 16.1 km
Cer senin

METAR: KONO 030753Z AUTO 30004KT 10SM CLR 18/06 A3000 RMK AO2 SLP145 T01830056

Ora: 02:28 (08:28 UTC)


TAF: lipsă

Observații și prognoze meteo pentru peste 4.000 de aeroporturi (rapoarte METAR și TAF).

Stațiile disponibile sunt reprezentate pe hartă prin puncte galbene și roșii.

Țineți indicatorul mouse-ului pe punctul dorit pentru a vedea denumirea stației.

Apoi, faceți clic pentru a vedea observațiile și prognozele meteorologice.

Pentru a schimba harta: Pentru mărire, faceți clic pe butoanele verzi cu cruce neagră; pentru micșorare, pe butonul verde cu o liniuță; pentru hărți învecinate, pe săgețile verzi.


METAR-TAF: